sensor_id;sensor_type;location;lat;lon;timestamp;pressure;altitude;pressure_sealevel;temperature;humidity
21096;BME280;10706;49.036;12.112;2023-04-26T00:02:02;97612.78;;;5.63;79.37
21096;BME280;10706;49.036;12.112;2023-04-26T00:04:30;97608.69;;;5.61;78.54
21096;BME280;10706;49.036;12.112;2023-04-26T00:06:56;97611.34;;;5.48;79.73
21096;BME280;10706;49.036;12.112;2023-04-26T00:09:22;97613.81;;;5.36;80.24
21096;BME280;10706;49.036;12.112;2023-04-26T00:11:48;97609.94;;;5.25;80.30
21096;BME280;10706;49.036;12.112;2023-04-26T00:14:14;97605.06;;;5.29;80.65
21096;BME280;10706;49.036;12.112;2023-04-26T00:16:40;97611.19;;;5.22;80.73
21096;BME280;10706;49.036;12.112;2023-04-26T00:19:05;97608.31;;;5.04;80.93
21096;BME280;10706;49.036;12.112;2023-04-26T00:21:31;97613.59;;;4.97;81.01
21096;BME280;10706;49.036;12.112;2023-04-26T00:23:57;97619.72;;;4.98;83.15
21096;BME280;10706;49.036;12.112;2023-04-26T00:26:23;97617.66;;;4.93;82.25
21096;BME280;10706;49.036;12.112;2023-04-26T00:28:49;97621.34;;;4.79;81.94
21096;BME280;10706;49.036;12.112;2023-04-26T00:31:15;97618.28;;;4.75;81.83
21096;BME280;10706;49.036;12.112;2023-04-26T00:33:42;97614.78;;;4.68;82.85
21096;BME280;10706;49.036;12.112;2023-04-26T00:36:08;97629.81;;;4.61;82.53
21096;BME280;10706;49.036;12.112;2023-04-26T00:38:35;97622.91;;;4.60;82.83
21096;BME280;10706;49.036;12.112;2023-04-26T00:41:00;97614.75;;;4.55;83.19
21096;BME280;10706;49.036;12.112;2023-04-26T00:43:26;97615.75;;;4.47;82.99
21096;BME280;10706;49.036;12.112;2023-04-26T00:45:52;97609.63;;;4.40;83.12
21096;BME280;10706;49.036;12.112;2023-04-26T00:48:19;97618.13;;;4.28;84.26
21096;BME280;10706;49.036;12.112;2023-04-26T00:50:45;97608.56;;;4.21;84.06
21096;BME280;10706;49.036;12.112;2023-04-26T00:53:13;97604.44;;;4.12;85.27
21096;BME280;10706;49.036;12.112;2023-04-26T00:55:42;97606.25;;;4.04;84.47
21096;BME280;10706;49.036;12.112;2023-04-26T00:58:09;97610.88;;;3.96;85.44
21096;BME280;10706;49.036;12.112;2023-04-26T01:00:35;97620.38;;;3.90;85.45
21096;BME280;10706;49.036;12.112;2023-04-26T01:03:01;97620.63;;;3.95;86.18
21096;BME280;10706;49.036;12.112;2023-04-26T01:05:27;97620.56;;;3.88;86.10
21096;BME280;10706;49.036;12.112;2023-04-26T01:07:53;97618.97;;;3.87;86.75
21096;BME280;10706;49.036;12.112;2023-04-26T01:10:19;97621.00;;;3.85;87.95
21096;BME280;10706;49.036;12.112;2023-04-26T01:12:45;97620.75;;;3.80;87.96
21096;BME280;10706;49.036;12.112;2023-04-26T01:15:11;97619.69;;;3.75;87.74
21096;BME280;10706;49.036;12.112;2023-04-26T01:17:37;97630.63;;;3.65;87.01
21096;BME280;10706;49.036;12.112;2023-04-26T01:20:04;97634.59;;;3.54;88.09
21096;BME280;10706;49.036;12.112;2023-04-26T01:22:34;97632.56;;;3.49;88.31
21096;BME280;10706;49.036;12.112;2023-04-26T01:25:03;97637.41;;;3.46;88.08
21096;BME280;10706;49.036;12.112;2023-04-26T01:27:29;97631.44;;;3.37;88.98
21096;BME280;10706;49.036;12.112;2023-04-26T01:29:55;97624.97;;;3.40;89.67
21096;BME280;10706;49.036;12.112;2023-04-26T01:32:20;97619.28;;;3.43;88.62
21096;BME280;10706;49.036;12.112;2023-04-26T01:34:46;97623.34;;;3.39;89.79
21096;BME280;10706;49.036;12.112;2023-04-26T01:37:12;97619.88;;;3.38;90.44
21096;BME280;10706;49.036;12.112;2023-04-26T01:39:38;97629.59;;;3.38;91.07
21096;BME280;10706;49.036;12.112;2023-04-26T01:42:04;97621.91;;;3.36;90.38
21096;BME280;10706;49.036;12.112;2023-04-26T01:44:30;97629.19;;;3.34;90.88
21096;BME280;10706;49.036;12.112;2023-04-26T01:46:56;97632.31;;;3.23;91.44
21096;BME280;10706;49.036;12.112;2023-04-26T01:49:22;97632.72;;;3.20;91.47
21096;BME280;10706;49.036;12.112;2023-04-26T01:51:47;97632.47;;;3.15;92.13
21096;BME280;10706;49.036;12.112;2023-04-26T01:54:13;97633.50;;;3.14;92.05
21096;BME280;10706;49.036;12.112;2023-04-26T01:56:39;97633.69;;;3.12;91.54
21096;BME280;10706;49.036;12.112;2023-04-26T01:59:05;97637.56;;;3.16;92.69
21096;BME280;10706;49.036;12.112;2023-04-26T02:01:30;97639.19;;;3.17;91.01
21096;BME280;10706;49.036;12.112;2023-04-26T02:03:57;97638.13;;;3.11;91.16
21096;BME280;10706;49.036;12.112;2023-04-26T02:06:22;97639.06;;;3.04;91.68
21096;BME280;10706;49.036;12.112;2023-04-26T02:08:48;97642.72;;;3.03;91.00
21096;BME280;10706;49.036;12.112;2023-04-26T02:11:14;97642.91;;;3.01;91.33
21096;BME280;10706;49.036;12.112;2023-04-26T02:13:40;97643.53;;;3.03;92.64
21096;BME280;10706;49.036;12.112;2023-04-26T02:16:06;97637.38;;;2.96;92.21
21096;BME280;10706;49.036;12.112;2023-04-26T02:18:32;97641.41;;;2.92;90.99
21096;BME280;10706;49.036;12.112;2023-04-26T02:20:59;97634.81;;;2.81;92.33
21096;BME280;10706;49.036;12.112;2023-04-26T02:23:24;97638.38;;;2.73;91.68
21096;BME280;10706;49.036;12.112;2023-04-26T02:25:50;97641.16;;;2.65;92.37
21096;BME280;10706;49.036;12.112;2023-04-26T02:28:16;97637.00;;;2.56;92.32
21096;BME280;10706;49.036;12.112;2023-04-26T02:30:42;97643.66;;;2.52;92.48
21096;BME280;10706;49.036;12.112;2023-04-26T02:33:09;97643.75;;;2.44;92.73
21096;BME280;10706;49.036;12.112;2023-04-26T02:35:35;97649.75;;;2.38;92.79
21096;BME280;10706;49.036;12.112;2023-04-26T02:38:04;97648.56;;;2.40;93.07
21096;BME280;10706;49.036;12.112;2023-04-26T02:40:29;97646.50;;;2.36;92.40
21096;BME280;10706;49.036;12.112;2023-04-26T02:42:55;97646.97;;;2.24;93.96
21096;BME280;10706;49.036;12.112;2023-04-26T02:45:22;97640.59;;;2.33;93.19
21096;BME280;10706;49.036;12.112;2023-04-26T02:47:47;97652.13;;;2.32;94.12
21096;BME280;10706;49.036;12.112;2023-04-26T02:50:13;97643.97;;;2.27;94.28
21096;BME280;10706;49.036;12.112;2023-04-26T02:52:39;97644.22;;;2.32;94.74
21096;BME280;10706;49.036;12.112;2023-04-26T02:55:05;97640.75;;;2.47;94.55
21096;BME280;10706;49.036;12.112;2023-04-26T02:57:32;97644.00;;;2.49;93.78
21096;BME280;10706;49.036;12.112;2023-04-26T02:59:58;97649.09;;;2.50;92.17
21096;BME280;10706;49.036;12.112;2023-04-26T03:02:24;97645.75;;;2.42;91.66
21096;BME280;10706;49.036;12.112;2023-04-26T03:04:50;97639.22;;;2.38;93.16
21096;BME280;10706;49.036;12.112;2023-04-26T03:07:16;97644.78;;;2.28;93.45
21096;BME280;10706;49.036;12.112;2023-04-26T03:09:42;97643.88;;;2.21;93.75
21096;BME280;10706;49.036;12.112;2023-04-26T03:12:08;97650.63;;;2.08;93.88
21096;BME280;10706;49.036;12.112;2023-04-26T03:14:34;97649.56;;;2.03;94.33
21096;BME280;10706;49.036;12.112;2023-04-26T03:17:01;97651.72;;;1.99;95.31
21096;BME280;10706;49.036;12.112;2023-04-26T03:19:27;97660.09;;;2.03;94.94
21096;BME280;10706;49.036;12.112;2023-04-26T03:21:54;97665.53;;;2.01;94.25
21096;BME280;10706;49.036;12.112;2023-04-26T03:24:20;97667.53;;;1.99;95.28
21096;BME280;10706;49.036;12.112;2023-04-26T03:26:46;97670.97;;;2.00;95.37
21096;BME280;10706;49.036;12.112;2023-04-26T03:29:12;97664.69;;;2.01;95.90
21096;BME280;10706;49.036;12.112;2023-04-26T03:31:37;97663.06;;;2.00;95.89
21096;BME280;10706;49.036;12.112;2023-04-26T03:34:04;97662.44;;;1.98;95.68
21096;BME280;10706;49.036;12.112;2023-04-26T03:36:30;97665.16;;;1.89;96.17
21096;BME280;10706;49.036;12.112;2023-04-26T03:38:56;97663.34;;;1.90;95.82
21096;BME280;10706;49.036;12.112;2023-04-26T03:41:23;97664.06;;;1.99;94.68
21096;BME280;10706;49.036;12.112;2023-04-26T03:43:49;97664.69;;;2.01;96.33
21096;BME280;10706;49.036;12.112;2023-04-26T03:46:15;97672.69;;;1.92;96.39
21096;BME280;10706;49.036;12.112;2023-04-26T03:48:41;97677.59;;;1.96;95.91
21096;BME280;10706;49.036;12.112;2023-04-26T03:51:07;97672.88;;;1.91;96.25
21096;BME280;10706;49.036;12.112;2023-04-26T03:53:32;97671.94;;;1.99;95.83
21096;BME280;10706;49.036;12.112;2023-04-26T03:55:58;97683.78;;;2.03;94.42
21096;BME280;10706;49.036;12.112;2023-04-26T03:58:24;97682.94;;;2.02;95.33
21096;BME280;10706;49.036;12.112;2023-04-26T04:00:51;97685.50;;;1.96;94.28
21096;BME280;10706;49.036;12.112;2023-04-26T04:03:16;97681.94;;;1.88;94.65
21096;BME280;10706;49.036;12.112;2023-04-26T04:05:42;97683.84;;;1.80;94.04
21096;BME280;10706;49.036;12.112;2023-04-26T04:08:08;97683.75;;;1.73;95.28
21096;BME280;10706;49.036;12.112;2023-04-26T04:10:34;97687.38;;;1.72;95.29
21096;BME280;10706;49.036;12.112;2023-04-26T04:13:01;97689.25;;;1.63;95.91
21096;BME280;10706;49.036;12.112;2023-04-26T04:15:27;97691.91;;;1.63;96.37
21096;BME280;10706;49.036;12.112;2023-04-26T04:17:52;97693.44;;;1.58;95.56
21096;BME280;10706;49.036;12.112;2023-04-26T04:20:18;97690.19;;;1.70;96.64
21096;BME280;10706;49.036;12.112;2023-04-26T04:22:46;97690.19;;;1.70;95.73
21096;BME280;10706;49.036;12.112;2023-04-26T04:25:12;97692.56;;;1.65;95.54
21096;BME280;10706;49.036;12.112;2023-04-26T04:27:39;97694.81;;;1.68;96.56
21096;BME280;10706;49.036;12.112;2023-04-26T04:30:08;97697.09;;;1.71;96.36
21096;BME280;10706;49.036;12.112;2023-04-26T04:32:37;97700.44;;;1.65;96.70
21096;BME280;10706;49.036;12.112;2023-04-26T04:35:05;97702.72;;;1.68;95.41
21096;BME280;10706;49.036;12.112;2023-04-26T04:37:31;97704.84;;;1.50;95.88
21096;BME280;10706;49.036;12.112;2023-04-26T04:39:58;97703.41;;;1.47;96.75
21096;BME280;10706;49.036;12.112;2023-04-26T04:42:24;97710.09;;;1.50;96.98
21096;BME280;10706;49.036;12.112;2023-04-26T04:44:52;97707.69;;;1.48;96.53
21096;BME280;10706;49.036;12.112;2023-04-26T04:47:18;97721.00;;;1.47;96.72
21096;BME280;10706;49.036;12.112;2023-04-26T04:49:44;97725.91;;;1.50;97.80
21096;BME280;10706;49.036;12.112;2023-04-26T04:52:10;97717.19;;;1.49;97.91
21096;BME280;10706;49.036;12.112;2023-04-26T04:54:36;97727.00;;;1.55;98.24
21096;BME280;10706;49.036;12.112;2023-04-26T04:57:01;97733.78;;;1.73;97.66
21096;BME280;10706;49.036;12.112;2023-04-26T04:59:28;97724.59;;;1.84;97.76
21096;BME280;10706;49.036;12.112;2023-04-26T05:01:54;97731.88;;;1.97;97.26
21096;BME280;10706;49.036;12.112;2023-04-26T05:04:20;97727.25;;;2.13;96.17
21096;BME280;10706;49.036;12.112;2023-04-26T05:06:46;97737.34;;;2.25;95.32
21096;BME280;10706;49.036;12.112;2023-04-26T05:09:12;97733.63;;;2.34;94.90
21096;BME280;10706;49.036;12.112;2023-04-26T05:11:38;97729.16;;;2.34;94.15
21096;BME280;10706;49.036;12.112;2023-04-26T05:14:03;97733.97;;;2.46;95.82
21096;BME280;10706;49.036;12.112;2023-04-26T05:16:29;97732.22;;;2.53;95.62
21096;BME280;10706;49.036;12.112;2023-04-26T05:18:55;97734.78;;;2.61;95.09
21096;BME280;10706;49.036;12.112;2023-04-26T05:21:21;97740.75;;;2.70;94.31
21096;BME280;10706;49.036;12.112;2023-04-26T05:23:47;97743.28;;;2.78;95.24
21096;BME280;10706;49.036;12.112;2023-04-26T05:26:15;97742.63;;;2.91;94.62
21096;BME280;10706;49.036;12.112;2023-04-26T05:28:42;97742.88;;;2.96;92.38
21096;BME280;10706;49.036;12.112;2023-04-26T05:31:08;97742.00;;;3.10;92.97
21096;BME280;10706;49.036;12.112;2023-04-26T05:33:35;97735.94;;;3.31;91.58
21096;BME280;10706;49.036;12.112;2023-04-26T05:36:00;97747.44;;;3.45;89.95
21096;BME280;10706;49.036;12.112;2023-04-26T05:38:27;97745.28;;;4.05;91.37
21096;BME280;10706;49.036;12.112;2023-04-26T05:40:53;97743.00;;;4.79;86.75
21096;BME280;10706;49.036;12.112;2023-04-26T05:43:18;97747.50;;;4.85;82.47
21096;BME280;10706;49.036;12.112;2023-04-26T05:45:51;97744.13;;;5.18;81.87
21096;BME280;10706;49.036;12.112;2023-04-26T05:48:19;97743.03;;;4.99;80.28
21096;BME280;10706;49.036;12.112;2023-04-26T05:50:45;97746.00;;;4.69;81.45
21096;BME280;10706;49.036;12.112;2023-04-26T05:53:11;97750.88;;;4.65;80.95
21096;BME280;10706;49.036;12.112;2023-04-26T05:55:37;97749.09;;;4.86;79.84
21096;BME280;10706;49.036;12.112;2023-04-26T05:58:03;97751.19;;;4.97;78.38
21096;BME280;10706;49.036;12.112;2023-04-26T06:00:29;97743.09;;;5.12;78.88
21096;BME280;10706;49.036;12.112;2023-04-26T06:02:55;97741.94;;;5.55;75.31
21096;BME280;10706;49.036;12.112;2023-04-26T06:05:21;97747.03;;;5.70;74.45
21096;BME280;10706;49.036;12.112;2023-04-26T06:07:47;97740.72;;;5.64;75.04
21096;BME280;10706;49.036;12.112;2023-04-26T06:10:13;97744.38;;;5.63;75.15
21096;BME280;10706;49.036;12.112;2023-04-26T06:12:39;97743.59;;;5.69;75.92
21096;BME280;10706;49.036;12.112;2023-04-26T06:15:05;97741.16;;;6.01;73.22
21096;BME280;10706;49.036;12.112;2023-04-26T06:17:31;97745.63;;;6.07;71.04
21096;BME280;10706;49.036;12.112;2023-04-26T06:19:56;97758.63;;;6.29;72.24
21096;BME280;10706;49.036;12.112;2023-04-26T06:22:22;97761.00;;;6.64;70.18
21096;BME280;10706;49.036;12.112;2023-04-26T06:24:48;97767.47;;;6.81;68.33
21096;BME280;10706;49.036;12.112;2023-04-26T06:27:14;97760.16;;;6.70;68.18
21096;BME280;10706;49.036;12.112;2023-04-26T06:29:39;97765.38;;;6.96;64.90
21096;BME280;10706;49.036;12.112;2023-04-26T06:32:06;97766.31;;;7.09;62.86
21096;BME280;10706;49.036;12.112;2023-04-26T06:34:31;97758.63;;;6.94;64.45
21096;BME280;10706;49.036;12.112;2023-04-26T06:36:57;97770.44;;;6.98;63.00
21096;BME280;10706;49.036;12.112;2023-04-26T06:39:24;97764.38;;;7.29;63.02
21096;BME280;10706;49.036;12.112;2023-04-26T06:41:50;97776.81;;;7.35;60.18
21096;BME280;10706;49.036;12.112;2023-04-26T06:44:16;97778.75;;;7.15;63.15
21096;BME280;10706;49.036;12.112;2023-04-26T06:46:41;97773.81;;;7.25;62.10
21096;BME280;10706;49.036;12.112;2023-04-26T06:49:08;97783.63;;;7.25;62.56
21096;BME280;10706;49.036;12.112;2023-04-26T06:51:34;97782.88;;;7.49;62.05
21096;BME280;10706;49.036;12.112;2023-04-26T06:54:01;97780.03;;;7.44;60.72
21096;BME280;10706;49.036;12.112;2023-04-26T06:56:27;97782.88;;;7.74;59.88
21096;BME280;10706;49.036;12.112;2023-04-26T06:59:01;97777.09;;;7.84;60.24
21096;BME280;10706;49.036;12.112;2023-04-26T07:01:28;97779.63;;;7.40;59.92
21096;BME280;10706;49.036;12.112;2023-04-26T07:03:58;97780.91;;;7.70;60.09
21096;BME280;10706;49.036;12.112;2023-04-26T07:06:26;97790.38;;;7.59;61.15
21096;BME280;10706;49.036;12.112;2023-04-26T07:08:51;97785.66;;;7.54;61.59
21096;BME280;10706;49.036;12.112;2023-04-26T07:11:18;97788.56;;;7.53;60.89
21096;BME280;10706;49.036;12.112;2023-04-26T07:13:43;97790.75;;;7.63;60.98
21096;BME280;10706;49.036;12.112;2023-04-26T07:16:09;97786.34;;;7.50;60.84
21096;BME280;10706;49.036;12.112;2023-04-26T07:18:35;97794.69;;;7.15;61.02
21096;BME280;10706;49.036;12.112;2023-04-26T07:21:00;97793.34;;;7.37;62.30
21096;BME280;10706;49.036;12.112;2023-04-26T07:23:28;97783.09;;;7.41;63.09
21096;BME280;10706;49.036;12.112;2023-04-26T07:25:54;97788.50;;;7.28;62.27
21096;BME280;10706;49.036;12.112;2023-04-26T07:28:20;97795.06;;;7.18;62.30
21096;BME280;10706;49.036;12.112;2023-04-26T07:30:46;97789.53;;;7.27;61.75
21096;BME280;10706;49.036;12.112;2023-04-26T07:33:11;97787.28;;;7.24;60.26
21096;BME280;10706;49.036;12.112;2023-04-26T07:35:37;97786.66;;;7.60;59.85
21096;BME280;10706;49.036;12.112;2023-04-26T07:38:03;97792.66;;;7.49;56.05
21096;BME280;10706;49.036;12.112;2023-04-26T07:40:29;97789.53;;;7.27;57.11
21096;BME280;10706;49.036;12.112;2023-04-26T07:42:56;97787.59;;;7.40;57.15
21096;BME280;10706;49.036;12.112;2023-04-26T07:45:22;97786.03;;;7.65;57.00
21096;BME280;10706;49.036;12.112;2023-04-26T07:47:47;97788.25;;;8.00;57.04
21096;BME280;10706;49.036;12.112;2023-04-26T07:50:13;97789.25;;;7.98;55.97
21096;BME280;10706;49.036;12.112;2023-04-26T07:52:40;97779.91;;;8.14;55.25
21096;BME280;10706;49.036;12.112;2023-04-26T07:55:08;97788.63;;;8.22;54.99
21096;BME280;10706;49.036;12.112;2023-04-26T07:57:34;97781.50;;;8.84;54.45
21096;BME280;10706;49.036;12.112;2023-04-26T07:59:59;97778.38;;;8.87;54.66
21096;BME280;10706;49.036;12.112;2023-04-26T08:02:25;97778.25;;;8.82;57.57
21096;BME280;10706;49.036;12.112;2023-04-26T08:04:51;97769.50;;;8.93;55.63
21096;BME280;10706;49.036;12.112;2023-04-26T08:07:18;97779.06;;;8.83;54.13
21096;BME280;10706;49.036;12.112;2023-04-26T08:09:44;97779.63;;;8.85;54.70
21096;BME280;10706;49.036;12.112;2023-04-26T08:12:13;97778.31;;;9.24;52.54
21096;BME280;10706;49.036;12.112;2023-04-26T08:14:38;97782.88;;;8.68;53.47
21096;BME280;10706;49.036;12.112;2023-04-26T08:17:06;97779.94;;;8.33;54.68
21096;BME280;10706;49.036;12.112;2023-04-26T08:19:32;97779.50;;;8.80;53.62
21096;BME280;10706;49.036;12.112;2023-04-26T08:21:58;97777.19;;;8.46;54.70
21096;BME280;10706;49.036;12.112;2023-04-26T08:24:24;97777.88;;;8.60;54.04
21096;BME280;10706;49.036;12.112;2023-04-26T08:26:50;97773.72;;;9.01;51.15
21096;BME280;10706;49.036;12.112;2023-04-26T08:29:16;97775.09;;;9.04;51.68
21096;BME280;10706;49.036;12.112;2023-04-26T08:31:43;97775.69;;;9.06;49.69
21096;BME280;10706;49.036;12.112;2023-04-26T08:34:08;97772.84;;;9.49;51.08
21096;BME280;10706;49.036;12.112;2023-04-26T08:36:42;97780.47;;;9.46;49.52
21096;BME280;10706;49.036;12.112;2023-04-26T08:39:08;97773.44;;;9.51;49.13
21096;BME280;10706;49.036;12.112;2023-04-26T08:41:48;97774.97;;;9.29;47.92
21096;BME280;10706;49.036;12.112;2023-04-26T08:44:14;97776.47;;;9.55;49.12
21096;BME280;10706;49.036;12.112;2023-04-26T08:47:03;97781.66;;;9.92;46.94
21096;BME280;10706;49.036;12.112;2023-04-26T08:49:45;97769.75;;;9.64;46.86
21096;BME280;10706;49.036;12.112;2023-04-26T08:52:27;97774.13;;;9.47;47.55
21096;BME280;10706;49.036;12.112;2023-04-26T08:54:54;97770.25;;;9.61;46.48
21096;BME280;10706;49.036;12.112;2023-04-26T08:57:21;97772.22;;;9.78;47.02
21096;BME280;10706;49.036;12.112;2023-04-26T08:59:49;97768.25;;;9.68;46.91
21096;BME280;10706;49.036;12.112;2023-04-26T09:02:21;97767.59;;;9.73;46.81
21096;BME280;10706;49.036;12.112;2023-04-26T09:04:49;97771.03;;;9.62;46.50
21096;BME280;10706;49.036;12.112;2023-04-26T09:07:21;97772.84;;;9.91;44.46
21096;BME280;10706;49.036;12.112;2023-04-26T09:09:49;97766.34;;;10.23;44.90
21096;BME280;10706;49.036;12.112;2023-04-26T09:12:18;97775.16;;;10.11;45.01
21096;BME280;10706;49.036;12.112;2023-04-26T09:14:46;97768.03;;;10.47;43.20
21096;BME280;10706;49.036;12.112;2023-04-26T09:17:26;97765.44;;;10.53;43.25
21096;BME280;10706;49.036;12.112;2023-04-26T09:19:52;97771.81;;;10.04;43.47
21096;BME280;10706;49.036;12.112;2023-04-26T09:22:31;97766.63;;;10.45;42.97
21096;BME280;10706;49.036;12.112;2023-04-26T09:24:57;97768.00;;;10.24;43.82
21096;BME280;10706;49.036;12.112;2023-04-26T09:27:37;97762.78;;;10.41;41.59
21096;BME280;10706;49.036;12.112;2023-04-26T09:30:17;97765.00;;;10.44;43.66
21096;BME280;10706;49.036;12.112;2023-04-26T09:38:10;97773.47;;;9.63;41.63
21096;BME280;10706;49.036;12.112;2023-04-26T09:40:47;97763.84;;;9.62;42.73
21096;BME280;10706;49.036;12.112;2023-04-26T09:43:19;97763.41;;;9.77;41.87
21096;BME280;10706;49.036;12.112;2023-04-26T09:45:50;97760.69;;;10.43;42.16
21096;BME280;10706;49.036;12.112;2023-04-26T09:48:24;97761.19;;;10.92;39.93
21096;BME280;10706;49.036;12.112;2023-04-26T09:50:53;97764.50;;;10.70;37.60
21096;BME280;10706;49.036;12.112;2023-04-26T09:53:45;97773.44;;;10.76;38.64
21096;BME280;10706;49.036;12.112;2023-04-26T09:56:16;97769.16;;;10.63;39.60
21096;BME280;10706;49.036;12.112;2023-04-26T10:01:14;97761.38;;;10.03;40.43
21096;BME280;10706;49.036;12.112;2023-04-26T10:03:42;97755.69;;;9.99;40.83
21096;BME280;10706;49.036;12.112;2023-04-26T10:06:08;97757.22;;;10.54;41.17
21096;BME280;10706;49.036;12.112;2023-04-26T10:08:35;97753.03;;;11.39;40.79
21096;BME280;10706;49.036;12.112;2023-04-26T10:11:03;97756.44;;;11.68;39.05
21096;BME280;10706;49.036;12.112;2023-04-26T10:13:33;97756.47;;;11.85;38.53
21096;BME280;10706;49.036;12.112;2023-04-26T10:16:00;97756.00;;;11.89;38.42
21096;BME280;10706;49.036;12.112;2023-04-26T10:18:27;97754.78;;;11.34;39.17
21096;BME280;10706;49.036;12.112;2023-04-26T10:20:56;97764.91;;;10.91;40.01
21096;BME280;10706;49.036;12.112;2023-04-26T10:23:23;97752.19;;;10.81;40.57
21096;BME280;10706;49.036;12.112;2023-04-26T10:25:53;97743.91;;;10.83;39.81
21096;BME280;10706;49.036;12.112;2023-04-26T10:28:55;97747.03;;;10.51;38.39
21096;BME280;10706;49.036;12.112;2023-04-26T10:31:21;97745.16;;;10.40;38.78
21096;BME280;10706;49.036;12.112;2023-04-26T10:34:20;97757.25;;;10.30;39.72
21096;BME280;10706;49.036;12.112;2023-04-26T10:37:11;97742.00;;;10.55;40.52
21096;BME280;10706;49.036;12.112;2023-04-26T10:39:42;97751.84;;;10.66;37.73
21096;BME280;10706;49.036;12.112;2023-04-26T10:42:24;97741.22;;;10.42;39.70
21096;BME280;10706;49.036;12.112;2023-04-26T10:44:56;97751.16;;;10.70;40.21
21096;BME280;10706;49.036;12.112;2023-04-26T10:47:31;97742.81;;;11.07;37.96
21096;BME280;10706;49.036;12.112;2023-04-26T10:50:06;97734.41;;;10.87;38.42
21096;BME280;10706;49.036;12.112;2023-04-26T10:52:34;97738.41;;;10.61;38.40
21096;BME280;10706;49.036;12.112;2023-04-26T10:55:01;97735.16;;;10.99;37.73
21096;BME280;10706;49.036;12.112;2023-04-26T10:57:47;97735.66;;;10.44;39.18
21096;BME280;10706;49.036;12.112;2023-04-26T11:00:28;97733.75;;;10.21;39.26
21096;BME280;10706;49.036;12.112;2023-04-26T11:03:03;97728.19;;;10.58;39.70
21096;BME280;10706;49.036;12.112;2023-04-26T11:05:50;97725.16;;;10.54;38.45
21096;BME280;10706;49.036;12.112;2023-04-26T11:08:20;97726.94;;;10.89;37.61
21096;BME280;10706;49.036;12.112;2023-04-26T11:11:11;97725.81;;;10.73;37.41
21096;BME280;10706;49.036;12.112;2023-04-26T11:13:42;97721.75;;;11.11;38.50
21096;BME280;10706;49.036;12.112;2023-04-26T11:16:16;97723.69;;;11.44;38.17
21096;BME280;10706;49.036;12.112;2023-04-26T11:18:44;97719.75;;;11.81;36.98
21096;BME280;10706;49.036;12.112;2023-04-26T11:21:11;97726.31;;;11.73;36.30
21096;BME280;10706;49.036;12.112;2023-04-26T11:23:39;97718.69;;;11.82;36.98
21096;BME280;10706;49.036;12.112;2023-04-26T11:26:07;97720.81;;;12.14;37.20
21096;BME280;10706;49.036;12.112;2023-04-26T11:28:35;97708.41;;;12.47;35.33
21096;BME280;10706;49.036;12.112;2023-04-26T11:31:05;97713.06;;;12.34;34.43
21096;BME280;10706;49.036;12.112;2023-04-26T11:33:32;97713.25;;;12.28;35.29
21096;BME280;10706;49.036;12.112;2023-04-26T11:36:01;97720.47;;;11.59;35.08
21096;BME280;10706;49.036;12.112;2023-04-26T11:38:28;97711.16;;;11.79;35.70
21096;BME280;10706;49.036;12.112;2023-04-26T11:40:59;97714.84;;;12.29;35.92
21096;BME280;10706;49.036;12.112;2023-04-26T11:43:44;97713.44;;;12.87;36.40
21096;BME280;10706;49.036;12.112;2023-04-26T11:46:10;97713.41;;;12.60;36.42
21096;BME280;10706;49.036;12.112;2023-04-26T11:48:36;97715.25;;;12.37;36.16
21096;BME280;10706;49.036;12.112;2023-04-26T11:51:04;97712.69;;;12.09;35.79
21096;BME280;10706;49.036;12.112;2023-04-26T11:53:42;97715.13;;;12.10;35.69
21096;BME280;10706;49.036;12.112;2023-04-26T11:56:18;97715.38;;;12.48;37.74
21096;BME280;10706;49.036;12.112;2023-04-26T11:58:50;97711.63;;;12.93;34.79
21096;BME280;10706;49.036;12.112;2023-04-26T12:03:54;97716.50;;;11.45;35.92
21096;BME280;10706;49.036;12.112;2023-04-26T12:06:40;97708.00;;;11.19;36.35
21096;BME280;10706;49.036;12.112;2023-04-26T12:09:07;97702.53;;;11.43;36.78
21096;BME280;10706;49.036;12.112;2023-04-26T12:11:36;97699.09;;;12.98;36.25
21096;BME280;10706;49.036;12.112;2023-04-26T12:14:03;97706.97;;;12.61;35.10
21096;BME280;10706;49.036;12.112;2023-04-26T12:16:29;97706.88;;;11.95;34.47
21096;BME280;10706;49.036;12.112;2023-04-26T12:18:55;97717.44;;;12.23;35.74
21096;BME280;10706;49.036;12.112;2023-04-26T12:21:21;97703.69;;;13.25;34.89
21096;BME280;10706;49.036;12.112;2023-04-26T12:23:47;97711.09;;;12.69;34.85
21096;BME280;10706;49.036;12.112;2023-04-26T12:26:13;97703.19;;;13.06;34.58
21096;BME280;10706;49.036;12.112;2023-04-26T12:28:39;97701.53;;;13.00;34.37
21096;BME280;10706;49.036;12.112;2023-04-26T12:31:06;97700.13;;;12.09;35.47
21096;BME280;10706;49.036;12.112;2023-04-26T12:33:33;97698.34;;;11.64;36.48
21096;BME280;10706;49.036;12.112;2023-04-26T12:36:12;97702.63;;;12.16;37.19
21096;BME280;10706;49.036;12.112;2023-04-26T12:38:38;97693.97;;;13.19;34.55
21096;BME280;10706;49.036;12.112;2023-04-26T12:41:04;97691.44;;;13.61;33.43
21096;BME280;10706;49.036;12.112;2023-04-26T12:43:30;97681.84;;;12.89;34.66
21096;BME280;10706;49.036;12.112;2023-04-26T12:45:56;97687.69;;;14.48;32.47
21096;BME280;10706;49.036;12.112;2023-04-26T12:48:22;97680.34;;;14.86;32.76
21096;BME280;10706;49.036;12.112;2023-04-26T12:50:48;97692.84;;;13.69;31.55
21096;BME280;10706;49.036;12.112;2023-04-26T12:53:13;97687.31;;;13.86;32.83
21096;BME280;10706;49.036;12.112;2023-04-26T12:55:39;97680.41;;;14.43;31.14
21096;BME280;10706;49.036;12.112;2023-04-26T12:58:05;97684.59;;;14.66;31.41
21096;BME280;10706;49.036;12.112;2023-04-26T13:00:31;97677.03;;;14.63;33.67
21096;BME280;10706;49.036;12.112;2023-04-26T13:02:57;97680.59;;;14.26;31.21
21096;BME280;10706;49.036;12.112;2023-04-26T13:05:23;97682.88;;;14.50;32.12
21096;BME280;10706;49.036;12.112;2023-04-26T13:07:54;97676.22;;;13.72;32.35
21096;BME280;10706;49.036;12.112;2023-04-26T13:10:20;97678.38;;;13.70;33.06
21096;BME280;10706;49.036;12.112;2023-04-26T13:12:45;97679.56;;;12.76;34.25